Time;durP1;ratioP1;P1;durP2;ratioP2;P2;SDS_P1;SDS_P2;PMS_P1;PMS_P2;Temp;Humidity;BMP_temperature;BMP_pressure;BME280_temperature;BME280_humidity;BME280_pressure;Samples;Min_cycle;Max_cycle;Signal;HPM_P1;HPM_P2
2021/08/26 00:00:46;;;;;;;1.77;0.90;;;17.60;82.60;;;;;;5075784;28;20388;-76
2021/08/26 00:05:56;;;;;;;0.70;0.50;;;17.60;82.60;;;;;;5075984;28;20059;-76
2021/08/26 00:08:23;;;;;;;0.85;0.80;;;17.60;82.50;;;;;;5057665;28;20048;-76
2021/08/26 00:10:52;;;;;;;1.85;1.02;;;17.60;82.60;;;;;;5057583;28;20025;-76
2021/08/26 00:13:20;;;;;;;1.63;0.80;;;17.60;82.60;;;;;;5057621;28;20103;-76
2021/08/26 00:15:46;;;;;;;1.30;0.73;;;17.60;82.60;;;;;;5057517;28;20426;-76
2021/08/26 00:18:13;;;;;;;1.10;0.90;;;17.60;82.60;;;;;;5057234;28;20117;-76
2021/08/26 00:20:39;;;;;;;0.80;0.75;;;17.70;82.60;;;;;;5075174;28;20113;-76
2021/08/26 00:23:05;;;;;;;1.30;1.00;;;17.60;82.50;;;;;;5075207;28;20056;-76
2021/08/26 00:25:31;;;;;;;1.35;1.05;;;17.70;82.60;;;;;;5056371;28;20037;-76
2021/08/26 00:27:57;;;;;;;1.55;1.23;;;17.60;82.50;;;;;;5055920;28;20029;-76
2021/08/26 00:30:22;;;;;;;1.35;0.90;;;17.60;82.60;;;;;;5073843;28;20021;-76
2021/08/26 00:32:48;;;;;;;2.35;1.15;;;17.60;82.70;;;;;;5055863;28;20012;-76
2021/08/26 00:35:14;;;;;;;3.08;1.05;;;17.50;82.70;;;;;;5055804;28;20230;-76
2021/08/26 00:37:39;;;;;;;1.95;1.10;;;17.50;82.70;;;;;;5073260;28;20092;-76
2021/08/26 00:40:05;;;;;;;2.22;1.10;;;17.50;82.80;;;;;;5073819;28;20028;-76
2021/08/26 00:42:31;;;;;;;2.03;1.23;;;17.50;82.80;;;;;;5073766;28;20035;-76
2021/08/26 00:44:57;;;;;;;2.65;1.25;;;17.50;82.80;;;;;;5055562;28;20021;-76
2021/08/26 00:47:24;;;;;;;2.08;1.10;;;17.40;82.80;;;;;;5073782;28;20033;-76
2021/08/26 00:49:51;;;;;;;2.00;1.20;;;17.40;82.90;;;;;;5055455;28;20488;-76
2021/08/26 00:52:17;;;;;;;2.33;1.17;;;17.40;82.90;;;;;;5073565;28;20032;-76
2021/08/26 00:54:43;;;;;;;1.90;1.17;;;17.50;83.00;;;;;;5055640;28;20108;-76
2021/08/26 00:57:08;;;;;;;1.65;1.10;;;17.50;83.00;;;;;;5073687;28;20472;-76
2021/08/26 00:59:34;;;;;;;1.50;1.10;;;17.50;83.00;;;;;;5073724;28;20105;-76
2021/08/26 01:02:24;;;;;;;3.70;1.15;;;17.50;82.90;;;;;;5055490;28;20031;-76
2021/08/26 01:04:52;;;;;;;2.90;1.00;;;17.50;82.90;;;;;;5073512;28;20032;-76
2021/08/26 01:07:23;;;;;;;2.42;0.95;;;17.50;82.80;;;;;;5073567;28;20107;-76
2021/08/26 01:09:53;;;;;;;2.22;1.00;;;17.50;82.70;;;;;;5073386;28;20025;-76
2021/08/26 01:12:22;;;;;;;1.75;1.20;;;17.50;82.70;;;;;;5053084;28;20036;-76
2021/08/26 01:14:49;;;;;;;2.13;1.20;;;17.60;82.80;;;;;;5073414;28;20056;-76
2021/08/26 01:17:24;;;;;;;1.50;1.08;;;17.60;82.70;;;;;;5055250;28;20468;-76
2021/08/26 01:19:52;;;;;;;2.25;0.98;;;17.50;82.70;;;;;;5073305;28;20036;-76
2021/08/26 01:22:19;;;;;;;2.58;1.23;;;17.50;82.70;;;;;;5055236;28;20024;-76
2021/08/26 01:24:53;;;;;;;1.20;1.00;;;17.50;82.70;;;;;;5035533;28;1074629;-76
2021/08/26 01:27:20;;;;;;;2.60;1.13;;;17.50;82.70;;;;;;5074311;28;20032;-76
2021/08/26 01:29:50;;;;;;;2.65;1.25;;;17.50;82.50;;;;;;5073975;28;20039;-76
2021/08/26 01:32:19;;;;;;;2.45;1.05;;;17.50;82.50;;;;;;5056084;28;20480;-76
2021/08/26 01:34:44;;;;;;;2.65;1.23;;;17.50;82.50;;;;;;5074076;28;20527;-76
2021/08/26 01:37:10;;;;;;;3.08;1.35;;;17.50;82.30;;;;;;5055900;28;20115;-76
2021/08/26 01:39:47;;;;;;;3.92;1.30;;;17.40;82.20;;;;;;5055988;28;20127;-77
2021/08/26 01:42:13;;;;;;;2.78;1.40;;;17.40;82.30;;;;;;5074030;28;20075;-76
2021/08/26 01:44:39;;;;;;;3.95;1.40;;;17.40;82.20;;;;;;5073735;28;20024;-76
2021/08/26 01:47:07;;;;;;;4.75;1.88;;;17.40;82.20;;;;;;5055774;28;20025;-76
2021/08/26 01:49:33;;;;;;;3.03;1.38;;;17.30;82.10;;;;;;5054981;28;20028;-76
2021/08/26 01:51:58;;;;;;;3.53;1.60;;;17.30;81.90;;;;;;5055708;28;20078;-76
2021/08/26 01:54:24;;;;;;;3.60;1.40;;;17.30;81.80;;;;;;5055695;28;20538;-77
2021/08/26 01:56:49;;;;;;;4.07;1.45;;;17.30;81.80;;;;;;5055619;28;20125;-77
2021/08/26 01:59:15;;;;;;;4.05;1.60;;;17.20;81.70;;;;;;5055628;28;20028;-76
2021/08/26 02:01:41;;;;;;;5.65;1.65;;;17.20;81.70;;;;;;5073513;28;20031;-76
2021/08/26 02:04:07;;;;;;;5.40;1.75;;;17.10;81.70;;;;;;5055376;28;20021;-76
2021/08/26 02:06:32;;;;;;;3.28;1.63;;;17.10;81.70;;;;;;5073331;28;20029;-77
2021/08/26 02:08:58;;;;;;;3.42;1.80;;;17.10;81.70;;;;;;5055143;28;20429;-77
2021/08/26 02:11:24;;;;;;;3.97;1.95;;;17.10;81.60;;;;;;5073266;28;20029;-76
2021/08/26 02:13:49;;;;;;;4.15;1.60;;;17.10;81.40;;;;;;5055249;28;20443;-77
2021/08/26 02:16:15;;;;;;;7.53;1.95;;;17.00;81.30;;;;;;5055449;28;20427;-77
2021/08/26 02:18:44;;;;;;;5.57;1.80;;;17.00;81.30;;;;;;5055285;28;20514;-76
2021/08/26 02:21:11;;;;;;;4.47;1.83;;;16.90;81.40;;;;;;5073127;28;20415;-76
2021/08/26 02:23:37;;;;;;;3.65;1.70;;;16.90;81.30;;;;;;5055053;28;20056;-77
2021/08/26 02:26:03;;;;;;;6.47;1.85;;;16.90;81.30;;;;;;5054831;28;20049;-76
2021/08/26 02:28:28;;;;;;;4.70;1.85;;;16.90;81.20;;;;;;5054942;28;20368;-76
2021/08/26 02:30:54;;;;;;;5.22;2.00;;;16.90;81.20;;;;;;5054992;28;20020;-76
2021/08/26 02:33:20;;;;;;;6.32;2.03;;;16.90;81.10;;;;;;5054964;28;20020;-77
2021/08/26 02:35:45;;;;;;;8.63;2.00;;;16.90;81.10;;;;;;5055132;28;20043;-77
2021/08/26 02:38:11;;;;;;;3.78;1.58;;;16.90;81.00;;;;;;5072918;28;20055;-77
2021/08/26 02:40:36;;;;;;;6.07;1.60;;;16.90;80.90;;;;;;5055226;28;20028;-76
2021/08/26 02:43:02;;;;;;;5.88;1.85;;;16.90;81.00;;;;;;5054927;28;20043;-76
2021/08/26 02:45:28;;;;;;;6.68;2.28;;;16.90;81.00;;;;;;5054638;28;20069;-76
2021/08/26 02:47:54;;;;;;;6.43;1.98;;;16.90;80.90;;;;;;5054718;28;20123;-76
2021/08/26 02:50:19;;;;;;;7.53;1.90;;;16.90;80.80;;;;;;5054704;28;20023;-76
2021/08/26 02:52:45;;;;;;;4.95;1.70;;;16.90;80.60;;;;;;5072710;28;20040;-76
2021/08/26 02:55:10;;;;;;;6.63;2.22;;;16.90;81.30;;;;;;5054605;28;20023;-76
2021/08/26 02:57:36;;;;;;;6.30;1.95;;;16.90;80.70;;;;;;5054511;28;20537;-76
2021/08/26 03:00:04;;;;;;;10.00;2.22;;;16.90;80.70;;;;;;5072419;28;20108;-76
2021/08/26 03:02:30;;;;;;;5.65;2.10;;;16.90;80.60;;;;;;5072634;28;20035;-76
2021/08/26 03:08:17;;;;;;;7.88;2.38;;;16.80;80.40;;;;;;5072669;28;20039;-76
2021/08/26 03:10:43;;;;;;;5.80;2.13;;;16.80;80.40;;;;;;5054571;28;20405;-77
2021/08/26 03:13:09;;;;;;;9.10;2.85;;;16.70;80.50;;;;;;5054616;28;20488;-77
2021/08/26 03:15:35;;;;;;;8.80;2.10;;;16.70;80.50;;;;;;5072470;28;20056;-76
2021/08/26 03:18:00;;;;;;;5.80;2.10;;;16.70;80.40;;;;;;5054601;28;20020;-76
2021/08/26 03:20:26;;;;;;;5.22;1.73;;;16.70;80.40;;;;;;5054328;28;20071;-77
2021/08/26 03:22:52;;;;;;;7.35;2.10;;;16.70;80.40;;;;;;5054331;28;20096;-76
2021/08/26 03:25:19;;;;;;;6.82;2.05;;;16.70;80.40;;;;;;5047625;28;20046;-76
2021/08/26 03:27:45;;;;;;;9.65;2.40;;;16.70;80.40;;;;;;5064617;28;20033;-76
2021/08/26 03:30:11;;;;;;;6.55;1.95;;;16.70;80.40;;;;;;5031040;28;20033;-76
2021/08/26 03:32:37;;;;;;;5.25;1.98;;;16.70;80.50;;;;;;5064363;28;20029;-76
2021/08/26 03:35:05;;;;;;;8.10;3.00;;;16.70;80.50;;;;;;5047688;28;20041;-77
2021/08/26 03:37:31;;;;;;;6.53;2.30;;;16.70;80.60;;;;;;5030939;28;20026;-77
2021/08/26 03:39:57;;;;;;;10.75;2.53;;;16.70;80.50;;;;;;5031084;28;20117;-77
2021/08/26 03:42:22;;;;;;;8.98;2.40;;;16.70;80.50;;;;;;5032317;28;20068;-77
2021/08/26 03:44:48;;;;;;;8.43;2.42;;;16.70;80.50;;;;;;5032301;28;20102;-77
2021/08/26 03:47:14;;;;;;;8.00;2.40;;;16.70;80.50;;;;;;5064347;28;20489;-77
2021/08/26 03:49:40;;;;;;;7.57;2.25;;;16.70;80.50;;;;;;5064091;28;20032;-76
2021/08/26 03:52:06;;;;;;;5.50;2.30;;;16.70;80.50;;;;;;5047795;28;20032;-77
2021/08/26 03:54:31;;;;;;;7.25;2.65;;;16.70;80.60;;;;;;5032411;28;20026;-76
2021/08/26 03:56:57;;;;;;;6.13;2.47;;;16.70;80.60;;;;;;5032540;28;20064;-76
2021/08/26 03:59:22;;;;;;;6.35;2.33;;;16.60;80.60;;;;;;5032163;28;20074;-76
2021/08/26 04:01:48;;;;;;;4.85;2.17;;;16.60;80.60;;;;;;5030814;28;20033;-76
2021/08/26 04:04:14;;;;;;;6.68;2.60;;;16.60;80.60;;;;;;5031077;28;20029;-76
2021/08/26 04:06:40;;;;;;;5.90;2.30;;;16.60;80.70;;;;;;5032073;28;20037;-76
2021/08/26 04:09:06;;;;;;;8.35;2.15;;;16.50;80.70;;;;;;5047285;28;20112;-76
2021/08/26 04:11:32;;;;;;;6.72;2.10;;;16.60;80.90;;;;;;5031983;28;20393;-77
2021/08/26 04:13:57;;;;;;;4.82;2.00;;;16.50;80.80;;;;;;5050870;28;20033;-77
2021/08/26 04:16:23;;;;;;;6.95;2.47;;;16.50;80.80;;;;;;5035696;28;20534;-77
2021/08/26 04:18:48;;;;;;;7.40;2.60;;;16.60;80.80;;;;;;5050925;28;20036;-77
2021/08/26 04:21:14;;;;;;;8.15;2.47;;;16.60;80.80;;;;;;5034196;28;20033;-77
2021/08/26 04:23:40;;;;;;;7.35;2.20;;;16.60;80.80;;;;;;5067424;28;20069;-76
2021/08/26 04:26:05;;;;;;;7.00;2.55;;;16.60;80.70;;;;;;5034020;28;20480;-77
2021/08/26 04:28:31;;;;;;;7.30;2.65;;;16.60;80.70;;;;;;5035304;28;20113;-77
2021/08/26 04:30:57;;;;;;;9.85;2.33;;;16.60;80.70;;;;;;5034066;28;20029;-76
2021/08/26 04:33:22;;;;;;;7.38;2.10;;;16.60;80.60;;;;;;5067223;28;20026;-77
2021/08/26 04:35:48;;;;;;;8.48;2.33;;;16.50;80.50;;;;;;5067629;28;20022;-77
2021/08/26 04:38:14;;;;;;;6.40;2.03;;;16.50;80.40;;;;;;5067127;28;20030;-77
2021/08/26 04:40:39;;;;;;;10.55;2.85;;;16.50;80.40;;;;;;5067306;28;20044;-77
2021/08/26 04:43:05;;;;;;;6.70;2.30;;;16.60;80.30;;;;;;5067198;28;20393;-77
2021/08/26 04:45:31;;;;;;;7.40;2.15;;;16.60;80.30;;;;;;5035046;28;20037;-77
2021/08/26 04:47:57;;;;;;;8.15;2.05;;;16.50;80.20;;;;;;5033618;28;20516;-77
2021/08/26 04:50:22;;;;;;;7.53;2.10;;;16.50;80.20;;;;;;5067371;28;20022;-77
2021/08/26 04:52:48;;;;;;;6.57;2.20;;;16.40;80.30;;;;;;5035013;28;20029;-77
2021/08/26 04:55:14;;;;;;;9.18;2.20;;;16.40;80.30;;;;;;5067167;28;20028;-77
2021/08/26 04:57:40;;;;;;;5.70;2.10;;;16.40;80.30;;;;;;5066940;28;20030;-77
2021/08/26 05:00:07;;;;;;;6.15;1.98;;;16.40;80.30;;;;;;5033466;28;20065;-77
2021/08/26 05:02:32;;;;;;;6.78;2.05;;;16.40;81.00;;;;;;5066648;28;20055;-76
2021/08/26 05:04:58;;;;;;;5.90;2.00;;;16.40;80.30;;;;;;5066786;28;20095;-77
2021/08/26 05:07:26;;;;;;;5.22;2.17;;;16.40;80.30;;;;;;5033625;28;20018;-77
2021/08/26 05:09:52;;;;;;;4.18;1.70;;;16.40;80.30;;;;;;5066577;28;20053;-77
2021/08/26 05:12:18;;;;;;;6.20;2.00;;;16.40;80.20;;;;;;5033276;28;20022;-76
2021/08/26 05:14:43;;;;;;;5.43;1.83;;;16.40;80.30;;;;;;5066621;28;20024;-77
2021/08/26 05:17:09;;;;;;;6.55;1.67;;;16.40;80.30;;;;;;5066407;28;20032;-77
2021/08/26 05:19:35;;;;;;;4.35;1.80;;;16.40;80.30;;;;;;5033113;28;20049;-77
2021/08/26 05:22:00;;;;;;;9.13;1.80;;;16.40;80.20;;;;;;5033168;28;20029;-77
2021/08/26 05:24:26;;;;;;;6.90;1.98;;;16.50;80.20;;;;;;5036730;28;20141;-77
2021/08/26 05:26:52;;;;;;;5.35;1.60;;;16.50;80.10;;;;;;5074230;28;20127;-77
2021/08/26 05:29:19;;;;;;;5.38;1.95;;;16.50;80.00;;;;;;5056128;28;20050;-77
2021/08/26 05:31:44;;;;;;;7.75;2.20;;;16.60;80.00;;;;;;5089689;28;20024;-77
2021/08/26 05:34:10;;;;;;;8.00;2.08;;;16.60;79.90;;;;;;5074077;28;20094;-77
2021/08/26 05:36:35;;;;;;;5.72;2.13;;;16.60;79.90;;;;;;5056114;28;20029;-77
2021/08/26 05:39:01;;;;;;;10.63;2.70;;;16.60;79.70;;;;;;5056155;28;20085;-77
2021/08/26 05:41:27;;;;;;;8.30;2.13;;;16.60;79.70;;;;;;5073934;28;20072;-77
2021/08/26 05:43:52;;;;;;;9.57;2.40;;;16.70;79.80;;;;;;5055889;28;20033;-77
2021/08/26 05:46:18;;;;;;;5.82;2.00;;;16.60;79.60;;;;;;5074064;28;20032;-77
2021/08/26 05:48:43;;;;;;;4.13;1.70;;;16.70;79.60;;;;;;5056212;28;20025;-77
2021/08/26 05:51:09;;;;;;;6.18;1.83;;;16.70;79.60;;;;;;5073611;28;20358;-77
2021/08/26 05:53:35;;;;;;;7.63;2.08;;;16.70;79.50;;;;;;5073682;28;20028;-77
2021/08/26 05:56:00;;;;;;;6.05;1.92;;;16.70;79.40;;;;;;5055625;28;20482;-77
2021/08/26 05:58:26;;;;;;;4.38;1.80;;;16.70;79.40;;;;;;5073886;28;20036;-77
2021/08/26 06:00:51;;;;;;;5.47;2.00;;;16.70;79.30;;;;;;5055993;28;20370;-77
2021/08/26 06:03:17;;;;;;;6.38;1.98;;;16.70;79.20;;;;;;5055388;28;20496;-77
2021/08/26 06:05:43;;;;;;;6.90;1.65;;;16.80;79.20;;;;;;5055397;28;20028;-77
2021/08/26 06:08:09;;;;;;;4.60;1.70;;;16.70;79.10;;;;;;5055306;28;20023;-77
2021/08/26 06:10:36;;;;;;;5.88;1.85;;;16.70;79.20;;;;;;5055680;28;20469;-77
2021/08/26 06:13:02;;;;;;;5.90;2.03;;;16.70;79.30;;;;;;5055361;28;20052;-76
2021/08/26 06:15:27;;;;;;;6.63;1.85;;;16.70;79.20;;;;;;5055112;28;20051;-77
2021/08/26 06:17:53;;;;;;;3.85;1.48;;;16.80;79.10;;;;;;5073031;28;20024;-77
2021/08/26 06:20:19;;;;;;;4.93;1.60;;;16.80;79.00;;;;;;5073035;28;20370;-77
2021/08/26 06:22:44;;;;;;;5.35;1.60;;;16.80;78.90;;;;;;5055154;28;20041;-77
2021/08/26 06:25:11;;;;;;;6.28;2.15;;;16.90;78.90;;;;;;5054813;28;20132;-76
2021/08/26 06:27:37;;;;;;;7.20;1.80;;;16.90;78.90;;;;;;5073015;28;20056;-76
2021/08/26 06:30:05;;;;;;;6.93;1.50;;;16.80;78.80;;;;;;5073001;28;20071;-76
2021/08/26 06:32:31;;;;;;;6.32;1.73;;;16.90;79.00;;;;;;5054792;28;20032;-76
2021/08/26 06:34:58;;;;;;;5.57;1.60;;;16.90;78.90;;;;;;5054390;28;20124;-76
2021/08/26 06:37:24;;;;;;;4.32;1.52;;;17.00;78.80;;;;;;5055109;28;20021;-76
2021/08/26 06:39:49;;;;;;;6.70;1.73;;;17.00;78.70;;;;;;5054984;28;20394;-76
2021/08/26 06:42:15;;;;;;;4.82;1.38;;;17.10;78.60;;;;;;5054817;28;20031;-75
2021/08/26 06:44:41;;;;;;;7.53;1.90;;;17.10;78.50;;;;;;5072693;28;20606;-75
2021/08/26 06:47:06;;;;;;;5.38;1.70;;;17.10;78.40;;;;;;5054798;28;20170;-76
2021/08/26 06:49:32;;;;;;;6.10;1.55;;;17.10;78.30;;;;;;5054725;28;20115;-76
2021/08/26 06:51:58;;;;;;;5.60;1.60;;;17.10;78.20;;;;;;5054737;28;20123;-75
2021/08/26 06:54:23;;;;;;;3.78;1.40;;;17.20;78.10;;;;;;5054742;28;20021;-76
2021/08/26 06:56:49;;;;;;;9.55;1.90;;;17.30;78.10;;;;;;5054709;28;20108;-76
2021/08/26 06:59:14;;;;;;;3.83;1.55;;;17.40;77.90;;;;;;5054495;28;20369;-76
2021/08/26 07:01:40;;;;;;;3.72;1.42;;;17.30;77.60;;;;;;5054643;28;20060;-76
2021/08/26 07:04:06;;;;;;;5.13;1.50;;;17.30;77.60;;;;;;5054856;28;20048;-76
2021/08/26 07:06:31;;;;;;;5.43;1.40;;;17.30;77.80;;;;;;5054454;28;20111;-76
2021/08/26 07:08:58;;;;;;;3.83;1.25;;;17.20;77.90;;;;;;5054463;28;20033;-76
2021/08/26 07:11:23;;;;;;;7.35;1.50;;;17.20;78.00;;;;;;5072417;28;20069;-76
2021/08/26 07:13:49;;;;;;;3.45;1.50;;;17.20;77.90;;;;;;5054397;28;20029;-76
2021/08/26 07:16:15;;;;;;;3.58;1.23;;;17.20;77.90;;;;;;5054406;28;20056;-76
2021/08/26 07:18:40;;;;;;;3.65;1.08;;;17.20;77.80;;;;;;5054320;28;20115;-76
2021/08/26 07:21:06;;;;;;;4.82;1.17;;;17.30;77.70;;;;;;5054428;28;20082;-76
2021/08/26 07:23:32;;;;;;;5.07;1.30;;;17.30;77.40;;;;;;5054270;28;20442;-76
2021/08/26 07:25:58;;;;;;;4.28;1.33;;;17.40;77.40;;;;;;5054162;28;20437;-76
2021/08/26 07:28:24;;;;;;;4.63;1.40;;;17.40;77.10;;;;;;5072151;28;20419;-76
2021/08/26 07:30:50;;;;;;;3.35;1.50;;;17.40;77.00;;;;;;5054334;28;20522;-76
2021/08/26 07:33:16;;;;;;;3.97;1.27;;;17.40;76.90;;;;;;5054132;28;20020;-76
2021/08/26 07:35:41;;;;;;;5.78;1.70;;;17.40;76.90;;;;;;5072238;28;20024;-75
2021/08/26 07:38:07;;;;;;;7.60;1.65;;;17.40;76.70;;;;;;5072140;28;20044;-75
2021/08/26 07:40:33;;;;;;;2.92;1.08;;;17.40;76.90;;;;;;5054355;28;20039;-75
2021/08/26 07:42:58;;;;;;;3.03;1.13;;;17.30;77.10;;;;;;5054159;28;20029;-76
2021/08/26 07:45:24;;;;;;;4.05;1.58;;;17.30;77.40;;;;;;5054066;28;20099;-75
2021/08/26 07:47:50;;;;;;;3.88;1.23;;;17.30;77.60;;;;;;5056007;28;20083;-75
2021/08/26 07:50:15;;;;;;;2.15;1.05;;;17.30;77.90;;;;;;5058007;28;20124;-76
2021/08/26 07:52:41;;;;;;;4.75;1.50;;;17.30;78.00;;;;;;5057942;28;20028;-75
2021/08/26 07:55:07;;;;;;;4.05;1.20;;;17.30;78.10;;;;;;5058502;28;20032;-76
2021/08/26 07:57:33;;;;;;;5.05;1.60;;;17.40;78.20;;;;;;5058125;28;20029;-76
2021/08/26 07:59:59;;;;;;;5.57;1.38;;;17.40;78.30;;;;;;5075780;28;20044;-75
2021/08/26 08:02:25;;;;;;;3.78;1.50;;;17.50;78.20;;;;;;5091418;28;20391;-75
2021/08/26 08:04:51;;;;;;;4.53;1.98;;;17.60;78.10;;;;;;5075813;28;20036;-75
2021/08/26 08:07:16;;;;;;;4.40;1.85;;;17.60;78.00;;;;;;5057660;28;20111;-76
2021/08/26 08:09:42;;;;;;;6.07;1.85;;;17.50;78.10;;;;;;5057577;28;20025;-76
2021/08/26 08:12:08;;;;;;;4.55;1.42;;;17.50;78.40;;;;;;5057588;28;20078;-76
2021/08/26 08:14:34;;;;;;;3.58;1.40;;;17.60;78.50;;;;;;5057453;28;20024;-76
2021/08/26 08:17:00;;;;;;;4.88;1.60;;;17.70;78.30;;;;;;5075384;28;20025;-76
2021/08/26 08:19:25;;;;;;;5.07;1.40;;;17.80;78.10;;;;;;5057442;28;20036;-76
2021/08/26 08:21:51;;;;;;;5.32;1.77;;;17.90;77.90;;;;;;5075433;28;20550;-76
2021/08/26 08:24:17;;;;;;;5.55;1.63;;;17.90;77.80;;;;;;5057019;28;20074;-76
2021/08/26 08:26:43;;;;;;;5.00;1.60;;;17.90;77.80;;;;;;5057412;28;20522;-76
2021/08/26 08:29:08;;;;;;;3.75;1.40;;;18.00;77.70;;;;;;5057266;28;20108;-76
2021/08/26 08:31:34;;;;;;;4.68;1.50;;;18.10;77.50;;;;;;5075213;28;20025;-76
2021/08/26 08:34:02;;;;;;;6.22;1.70;;;18.10;77.40;;;;;;5057375;28;20028;-76
2021/08/26 08:36:28;;;;;;;4.32;1.45;;;18.10;77.30;;;;;;5057019;28;20059;-76
2021/08/26 08:38:53;;;;;;;4.78;1.58;;;18.10;77.30;;;;;;5075013;28;20547;-76
2021/08/26 08:41:20;;;;;;;4.13;1.40;;;18.10;77.20;;;;;;5056935;28;20395;-76
2021/08/26 08:43:47;;;;;;;3.65;1.33;;;18.20;77.10;;;;;;5075062;28;20558;-76
2021/08/26 08:46:13;;;;;;;3.97;1.27;;;18.20;77.00;;;;;;5090315;28;20047;-76
2021/08/26 08:48:41;;;;;;;3.45;1.27;;;18.20;76.80;;;;;;5056823;28;20505;-76
2021/08/26 08:54:29;;;;;;;2.60;1.48;;;18.30;76.50;;;;;;5074792;28;20094;-76
2021/08/26 08:56:55;;;;;;;3.53;1.30;;;18.30;76.20;;;;;;5074917;28;20388;-76
2021/08/26 08:59:20;;;;;;;2.80;1.17;;;18.30;76.30;;;;;;5056280;28;20028;-75
2021/08/26 09:01:53;;;;;;;3.58;1.15;;;18.40;76.40;;;;;;5056601;28;20033;-76
2021/08/26 09:04:20;;;;;;;4.63;1.52;;;18.50;76.10;;;;;;5074790;28;20056;-76
2021/08/26 09:06:47;;;;;;;4.22;1.35;;;18.50;75.90;;;;;;5090380;28;20036;-76
2021/08/26 09:09:13;;;;;;;2.08;1.23;;;18.60;75.80;;;;;;5056683;28;20024;-76
2021/08/26 09:11:49;;;;;;;4.90;1.65;;;18.70;75.60;;;;;;5056501;28;20396;-76
2021/08/26 09:14:15;;;;;;;5.95;1.88;;;18.80;75.10;;;;;;5074602;28;20024;-76
2021/08/26 09:16:47;;;;;;;3.50;1.40;;;18.80;74.90;;;;;;5056398;28;20056;-76
2021/08/26 09:19:17;;;;;;;2.50;1.13;;;18.70;75.00;;;;;;5056516;28;20027;-76
2021/08/26 09:21:44;;;;;;;4.30;1.63;;;18.80;75.30;;;;;;5056253;28;20062;-76
2021/08/26 09:24:09;;;;;;;3.67;1.50;;;18.80;75.40;;;;;;5056241;28;20488;-76
2021/08/26 09:26:35;;;;;;;5.65;1.70;;;18.70;75.50;;;;;;5056190;28;20044;-76
2021/08/26 09:29:04;;;;;;;5.90;1.50;;;18.60;75.70;;;;;;5056102;28;20036;-76
2021/08/26 09:31:32;;;;;;;3.25;1.38;;;18.60;75.80;;;;;;5056125;28;20025;-76
2021/08/26 09:34:04;;;;;;;4.43;1.40;;;18.60;75.90;;;;;;5056091;28;20163;-76
2021/08/26 09:36:51;;;;;;;5.55;1.63;;;18.60;75.90;;;;;;5056113;28;20020;-76
2021/08/26 09:39:19;;;;;;;5.88;1.70;;;18.50;75.90;;;;;;5055942;28;20078;-76
2021/08/26 09:42:00;;;;;;;3.92;1.35;;;18.50;75.90;;;;;;5055968;28;20036;-76
2021/08/26 09:44:31;;;;;;;5.47;1.60;;;18.60;75.90;;;;;;5075191;28;20104;-76
2021/08/26 09:47:00;;;;;;;3.97;1.50;;;18.60;75.90;;;;;;5055811;28;20032;-77
2021/08/26 09:49:27;;;;;;;3.47;1.60;;;18.60;75.90;;;;;;5089307;28;20472;-76
2021/08/26 09:52:02;;;;;;;5.82;1.75;;;18.40;75.90;;;;;;5073690;28;20500;-76
2021/08/26 09:54:31;;;;;;;5.47;1.70;;;18.40;76.40;;;;;;5073670;28;20038;-76
2021/08/26 09:56:57;;;;;;;5.75;1.83;;;18.30;76.60;;;;;;5055636;28;20033;-76
2021/08/26 10:00:04;;;;;;;4.32;1.60;;;18.20;76.90;;;;;;5073660;28;20052;-76
2021/08/26 10:02:31;;;;;;;5.32;1.90;;;18.10;77.10;;;;;;4975926;28;20034;-76
2021/08/26 10:04:58;;;;;;;3.83;1.80;;;18.20;77.40;;;;;;4992078;28;20049;-76
2021/08/26 10:07:26;;;;;;;4.50;1.20;;;18.20;77.50;;;;;;5015528;28;20040;-76
2021/08/26 10:09:52;;;;;;;4.53;1.50;;;18.30;77.40;;;;;;5088354;28;20031;-77
2021/08/26 10:12:18;;;;;;;5.05;1.50;;;18.50;77.30;;;;;;5055457;28;20040;-77
2021/08/26 10:14:46;;;;;;;3.50;1.33;;;18.60;77.00;;;;;;5073457;28;20032;-77
2021/08/26 10:17:12;;;;;;;4.28;1.42;;;18.70;76.80;;;;;;5055339;28;20480;-76
2021/08/26 10:19:39;;;;;;;4.05;1.48;;;18.80;76.50;;;;;;5073205;28;20063;-76
2021/08/26 10:22:05;;;;;;;3.35;1.50;;;18.90;76.30;;;;;;5073121;28;20025;-76
2021/08/26 10:24:32;;;;;;;3.17;1.10;;;18.90;76.30;;;;;;5072926;28;20442;-77
2021/08/26 10:27:03;;;;;;;5.65;1.85;;;19.00;76.00;;;;;;5072983;28;20086;-76
2021/08/26 10:29:30;;;;;;;4.25;1.45;;;19.00;75.90;;;;;;5073051;28;20024;-77
2021/08/26 10:31:59;;;;;;;5.72;1.70;;;19.00;75.80;;;;;;5072939;28;20017;-76
2021/08/26 10:34:29;;;;;;;3.25;1.40;;;19.10;75.80;;;;;;5073042;28;20146;-76
2021/08/26 10:36:54;;;;;;;6.07;1.60;;;19.30;75.60;;;;;;5072839;28;20020;-76
2021/08/26 10:39:31;;;;;;;4.88;1.60;;;19.40;74.90;;;;;;5072833;28;20028;-76
2021/08/26 10:42:17;;;;;;;6.30;2.10;;;19.50;74.70;;;;;;5072835;28;20037;-76
2021/08/26 10:45:10;;;;;;;5.05;1.70;;;19.50;73.90;;;;;;5054766;28;20028;-77
2021/08/26 10:47:48;;;;;;;4.50;1.60;;;19.50;73.90;;;;;;5054762;28;20040;-76
2021/08/26 10:50:19;;;;;;;4.20;1.50;;;19.60;73.80;;;;;;5072703;28;20064;-75
2021/08/26 10:53:05;;;;;;;2.95;1.45;;;19.60;73.40;;;;;;5072695;28;20033;-76
2021/08/26 10:55:42;;;;;;;6.65;2.00;;;19.60;73.20;;;;;;5072634;28;20056;-76
2021/08/26 10:58:16;;;;;;;5.80;1.80;;;19.70;73.30;;;;;;5054645;28;20120;-75
2021/08/26 11:00:45;;;;;;;5.85;1.85;;;19.70;72.90;;;;;;5054603;28;20078;-75
2021/08/26 11:03:34;;;;;;;4.78;1.70;;;19.70;72.90;;;;;;5054466;28;20052;-75
2021/08/26 11:06:12;;;;;;;5.20;2.00;;;19.90;72.80;;;;;;5087884;28;20070;-76
2021/08/26 11:08:39;;;;;;;5.00;2.00;;;20.00;72.70;;;;;;5054869;28;20494;-76
2021/08/26 11:11:29;;;;;;;4.75;1.92;;;20.10;72.40;;;;;;5054624;28;20021;-76
2021/08/26 11:14:07;;;;;;;6.20;1.85;;;20.10;72.10;;;;;;5072509;28;20094;-75
2021/08/26 11:16:33;;;;;;;4.38;1.60;;;20.20;72.10;;;;;;5072296;28;20025;-75
2021/08/26 11:19:06;;;;;;;5.05;1.77;;;20.30;72.00;;;;;;5054264;28;20031;-75
2021/08/26 11:21:44;;;;;;;;;;;20.40;71.80;;;;;;5056141;28;20081;-76
2021/08/26 11:24:12;;;;;;;4.45;1.98;;;20.50;71.70;;;;;;5058720;28;19954;-75
2021/08/26 11:26:53;;;;;;;7.07;2.10;;;20.50;71.90;;;;;;5058496;28;20044;-75
2021/08/26 11:29:22;;;;;;;4.32;2.20;;;20.50;70.90;;;;;;5076292;28;20523;-76
2021/08/26 11:31:53;;;;;;;6.10;1.80;;;20.40;70.80;;;;;;5058199;28;20025;-75
2021/08/26 11:34:56;;;;;;;7.15;2.65;;;20.40;70.80;;;;;;5058243;28;20116;-76
2021/08/26 11:37:28;;;;;;;6.50;2.30;;;20.40;70.50;;;;;;5057839;28;20035;-75
2021/08/26 11:40:07;;;;;;;7.68;2.47;;;20.30;70.30;;;;;;5091792;28;20334;-75
2021/08/26 11:42:46;;;;;;;7.03;2.47;;;20.30;69.90;;;;;;5058070;28;20020;-76
2021/08/26 11:45:29;;;;;;;9.23;2.70;;;20.30;69.50;;;;;;5075931;28;20036;-75
2021/08/26 11:47:56;;;;;;;4.53;2.00;;;20.20;69.40;;;;;;5076043;28;20120;-75
2021/08/26 11:50:26;;;;;;;6.68;2.53;;;20.30;69.70;;;;;;5058025;28;20067;-76
2021/08/26 11:52:57;;;;;;;6.15;2.63;;;20.40;69.50;;;;;;5057793;28;20017;-76
2021/08/26 11:55:25;;;;;;;7.68;2.58;;;20.50;69.30;;;;;;5058019;28;20024;-76
2021/08/26 12:01:20;;;;;;;6.60;2.50;;;20.50;69.10;;;;;;5076207;28;20095;-76
2021/08/26 12:03:53;;;;;;;8.43;2.85;;;20.50;69.10;;;;;;5057785;28;20017;-76
2021/08/26 12:06:19;;;;;;;6.38;2.80;;;20.60;69.10;;;;;;5075879;28;20051;-76
2021/08/26 12:08:49;;;;;;;7.25;2.47;;;20.70;69.00;;;;;;5075764;28;20024;-76
2021/08/26 12:11:24;;;;;;;6.70;2.55;;;20.80;68.90;;;;;;5075627;28;20055;-76
2021/08/26 12:13:50;;;;;;;6.05;2.60;;;20.90;68.60;;;;;;5075622;28;20067;-76
2021/08/26 12:16:26;;;;;;;8.52;2.70;;;21.00;68.60;;;;;;5057551;28;20013;-76
2021/08/26 12:18:52;;;;;;;7.75;2.78;;;21.00;68.10;;;;;;5057460;28;20477;-76
2021/08/26 12:21:18;;;;;;;5.72;2.60;;;20.90;68.10;;;;;;5057802;28;20025;-76
2021/08/26 12:23:48;;;;;;;9.02;3.42;;;20.90;68.00;;;;;;5075411;28;20430;-76
2021/08/26 12:26:16;;;;;;;7.47;3.00;;;20.80;67.60;;;;;;5090925;28;20048;-75
2021/08/26 12:28:42;;;;;;;7.18;2.30;;;20.80;67.60;;;;;;5090964;28;20111;-76
2021/08/26 12:31:09;;;;;;;6.13;2.42;;;20.70;67.40;;;;;;5075287;28;20023;-76
2021/08/26 12:33:37;;;;;;;7.63;2.97;;;20.70;67.70;;;;;;5056475;28;20025;-76
2021/08/26 12:36:03;;;;;;;7.85;2.60;;;20.60;67.60;;;;;;5075248;28;20013;-75
2021/08/26 12:38:38;;;;;;;8.35;2.97;;;20.60;67.60;;;;;;5075281;28;20063;-76
2021/08/26 12:41:07;;;;;;;6.80;2.80;;;20.70;67.90;;;;;;5057153;28;20074;-76
2021/08/26 12:43:43;;;;;;;7.50;2.75;;;20.80;67.80;;;;;;5057043;28;20023;-76
2021/08/26 12:46:11;;;;;;;7.00;3.10;;;20.90;67.30;;;;;;5057052;28;20025;-76
2021/08/26 12:48:40;;;;;;;6.38;2.42;;;21.10;67.10;;;;;;5074870;28;20028;-76
2021/08/26 12:51:07;;;;;;;8.45;2.33;;;21.30;66.80;;;;;;5056937;28;20021;-76
2021/08/26 12:53:33;;;;;;;5.35;2.40;;;21.40;66.50;;;;;;5075098;28;20051;-76
2021/08/26 12:56:05;;;;;;;5.28;2.30;;;21.50;65.30;;;;;;5056806;28;20048;-76
2021/08/26 12:58:31;;;;;;;6.70;2.50;;;21.50;65.50;;;;;;5056865;28;20021;-76
2021/08/26 13:00:57;;;;;;;6.43;2.40;;;21.60;65.20;;;;;;5056825;28;20055;-76
2021/08/26 13:03:43;;;;;;;7.65;2.58;;;21.50;64.10;;;;;;5056793;28;20017;-76